Lovendegem, Belgium
Current Conditions -  °F | °C
As of 11:25 AM on Sunday 26 Oct 2014 (Local Time) from EHFS Reporting Station
Overcast Overcast  
Wind Chill: 57°   Ceiling: 3700
Heat Index: 57°   Visibility: 6mi
Dew Point: 52°   Wind: 15mph
Humidity: 82%   Direction: 210°SSW
Pressure: 30.21"   Gusts: NA
Location:  51.1°N, 3.61°E
Report Text: EHFS 260925Z AUTO 21013KT 9999 OVC037/// 14/11 Q1023
Loading
Personal Weather Stations






























Interactive Weather Map
Tropical Storm Tracking
New forecast layout! Learn more

10-Day Weather Forecast

Advertisements
Track Severe Weather on mobile